createdAt,value
2017-03-30T00:00:00.639Z,13.77
2017-03-30T00:01:01.931Z,13.71
2017-03-30T00:02:03.148Z,13.71
2017-03-30T00:03:04.378Z,13.69
2017-03-30T00:04:05.638Z,13.8
2017-03-30T00:05:06.960Z,13.71
2017-03-30T00:06:08.216Z,13.65
2017-03-30T00:07:09.456Z,13.74
2017-03-30T00:08:10.728Z,13.63
2017-03-30T00:09:11.979Z,13.63
2017-03-30T00:10:13.231Z,13.69
2017-03-30T00:11:14.471Z,13.67
2017-03-30T00:12:15.720Z,13.63
2017-03-30T00:13:16.964Z,13.67
2017-03-30T00:14:18.216Z,13.63
2017-03-30T00:15:19.444Z,13.62
2017-03-30T00:16:20.707Z,13.63
2017-03-30T00:17:21.972Z,13.52
2017-03-30T00:18:23.289Z,13.51
2017-03-30T00:19:24.539Z,13.51
2017-03-30T00:20:25.788Z,13.37
2017-03-30T00:21:27.034Z,13.41
2017-03-30T00:22:28.294Z,13.44
2017-03-30T00:23:29.536Z,13.43
2017-03-30T00:24:30.782Z,13.33
2017-03-30T00:25:32.019Z,13.3
2017-03-30T00:26:33.275Z,13.36
2017-03-30T00:27:34.551Z,13.33
2017-03-30T00:28:35.780Z,13.27
2017-03-30T00:29:37.038Z,13.32
2017-03-30T00:30:38.273Z,13.29
2017-03-30T00:31:39.589Z,13.22
2017-03-30T00:32:40.814Z,13.18
2017-03-30T00:33:42.043Z,13.21
2017-03-30T00:34:43.300Z,13.18
2017-03-30T00:35:44.525Z,13.17
2017-03-30T00:36:45.902Z,13.21
2017-03-30T00:37:47.166Z,13.15
2017-03-30T00:38:48.391Z,13.17
2017-03-30T00:39:49.627Z,13.21
2017-03-30T00:40:50.868Z,13.15
2017-03-30T00:41:52.105Z,13.22
2017-03-30T00:42:53.448Z,13.27
2017-03-30T00:43:54.695Z,13.22
2017-03-30T00:44:55.953Z,13.24
2017-03-30T00:45:57.193Z,13.27
2017-03-30T00:46:58.431Z,13.24
2017-03-30T00:47:59.799Z,13.25
2017-03-30T00:49:01.067Z,13.21
2017-03-30T00:50:02.302Z,13.22
2017-03-30T00:51:03.596Z,13.09
2017-03-30T00:52:04.866Z,13.15
2017-03-30T00:53:06.110Z,13.17
2017-03-30T00:54:07.343Z,13.02
2017-03-30T00:55:08.594Z,13.09
2017-03-30T00:56:09.852Z,13.06
2017-03-30T00:57:11.103Z,13.06
2017-03-30T00:58:12.320Z,13.04
2017-03-30T00:59:13.563Z,13.06
2017-03-30T01:00:14.818Z,13
2017-03-30T01:01:16.129Z,13.02
2017-03-30T01:02:17.396Z,13.09
2017-03-30T01:03:18.629Z,12.97
2017-03-30T01:04:19.964Z,13.03
2017-03-30T01:05:21.225Z,12.89
2017-03-30T01:06:22.442Z,12.96
2017-03-30T01:07:23.687Z,12.97
2017-03-30T01:08:24.913Z,13.04
2017-03-30T01:09:26.161Z,12.93
2017-03-30T01:10:27.505Z,13.04
2017-03-30T01:11:28.741Z,13.04
2017-03-30T01:12:30.008Z,13.06
2017-03-30T01:13:31.227Z,13
2017-03-30T01:14:32.446Z,13.11
2017-03-30T01:15:33.808Z,13.03
2017-03-30T01:16:35.082Z,13.04
2017-03-30T01:17:36.317Z,13.12
2017-03-30T01:18:37.554Z,13.17
2017-03-30T01:19:38.806Z,13.18
2017-03-30T01:20:40.052Z,13.21
2017-03-30T01:21:41.305Z,13.25
2017-03-30T01:22:42.551Z,13.22
2017-03-30T01:23:43.791Z,13.3
2017-03-30T01:24:45.030Z,13.25
2017-03-30T01:25:46.270Z,13.27
2017-03-30T01:26:47.518Z,13.25
2017-03-30T01:27:48.759Z,13.33
2017-03-30T01:28:50.003Z,13.33
2017-03-30T01:29:51.406Z,13.3
2017-03-30T01:30:52.705Z,13.32
2017-03-30T01:31:53.906Z,13.4
2017-03-30T01:32:55.132Z,13.37
2017-03-30T01:33:56.442Z,13.33
2017-03-30T01:34:57.695Z,13.3
2017-03-30T01:35:58.920Z,13.38
2017-03-30T01:37:00.164Z,13.37
2017-03-30T01:38:01.443Z,13.36
2017-03-30T01:39:02.636Z,13.38
2017-03-30T01:40:03.884Z,13.46
2017-03-30T01:41:05.125Z,13.44
2017-03-30T01:42:06.454Z,13.41
2017-03-30T01:43:07.780Z,13.43
2017-03-30T01:44:09.004Z,13.41
2017-03-30T01:45:10.282Z,13.44
2017-03-30T01:46:11.598Z,13.43
2017-03-30T01:47:12.847Z,13.46
2017-03-30T01:48:14.100Z,13.41
2017-03-30T01:49:15.351Z,13.51
2017-03-30T01:50:16.628Z,13.4
2017-03-30T01:51:17.952Z,13.43
2017-03-30T01:52:19.196Z,13.44
2017-03-30T01:53:20.493Z,13.49
2017-03-30T01:54:21.691Z,13.47
2017-03-30T01:55:22.962Z,13.43
2017-03-30T01:56:24.206Z,13.51
2017-03-30T01:57:25.443Z,13.52
2017-03-30T01:58:26.691Z,13.55
2017-03-30T01:59:27.955Z,13.47
2017-03-30T02:00:29.190Z,13.51
2017-03-30T02:01:30.438Z,13.51
2017-03-30T02:02:31.687Z,13.4
2017-03-30T02:03:32.944Z,13.56
2017-03-30T02:04:34.174Z,13.51
2017-03-30T02:05:35.495Z,13.49
2017-03-30T02:06:36.768Z,13.54
2017-03-30T02:07:38.061Z,13.52
2017-03-30T02:08:39.293Z,13.51
2017-03-30T02:09:40.552Z,13.52
2017-03-30T02:10:41.797Z,13.54
2017-03-30T02:11:43.041Z,13.51
2017-03-30T02:12:44.293Z,13.44
2017-03-30T02:13:45.560Z,13.51
2017-03-30T02:14:46.802Z,13.51
2017-03-30T02:15:48.062Z,13.54
2017-03-30T02:16:49.327Z,13.54
2017-03-30T02:17:50.540Z,13.54
2017-03-30T02:18:51.862Z,13.51
2017-03-30T02:19:53.100Z,13.47
2017-03-30T02:20:54.361Z,13.54
2017-03-30T02:21:55.634Z,13.54
2017-03-30T02:22:56.893Z,13.56
2017-03-30T02:23:58.246Z,13.55
2017-03-30T02:24:59.510Z,13.56
2017-03-30T02:26:00.770Z,13.56
2017-03-30T02:27:02.028Z,13.62
2017-03-30T02:28:03.264Z,13.61
2017-03-30T02:29:04.525Z,13.67
2017-03-30T02:30:05.783Z,13.62
2017-03-30T02:31:07.023Z,13.67
2017-03-30T02:32:08.284Z,13.61
2017-03-30T02:33:09.519Z,13.62
2017-03-30T02:34:10.781Z,13.69
2017-03-30T02:35:12.022Z,13.59
2017-03-30T02:36:13.238Z,13.69
2017-03-30T02:37:14.502Z,13.62
2017-03-30T02:38:15.729Z,13.71
2017-03-30T02:39:16.964Z,13.65
2017-03-30T02:40:18.216Z,13.63
2017-03-30T02:41:19.486Z,13.74
2017-03-30T02:42:20.702Z,13.62
2017-03-30T02:43:21.956Z,13.65
2017-03-30T02:44:23.230Z,13.7
2017-03-30T02:45:24.528Z,13.59
2017-03-30T02:46:25.898Z,13.61
2017-03-30T02:47:27.151Z,13.73
2017-03-30T02:48:28.392Z,13.7
2017-03-30T02:49:29.726Z,13.7
2017-03-30T02:50:31.079Z,13.62
2017-03-30T02:51:32.322Z,13.69
2017-03-30T02:52:33.667Z,13.7
2017-03-30T02:53:34.905Z,13.63
2017-03-30T02:54:36.151Z,13.62
2017-03-30T02:55:37.452Z,13.7
2017-03-30T02:56:38.699Z,13.65
2017-03-30T02:57:40.038Z,13.69
2017-03-30T02:58:41.287Z,13.69
2017-03-30T02:59:42.550Z,13.74
2017-03-30T03:00:43.809Z,13.76
2017-03-30T03:01:45.040Z,13.67
2017-03-30T03:02:46.305Z,13.8
2017-03-30T03:03:47.557Z,13.67
2017-03-30T03:04:48.777Z,13.71
2017-03-30T03:05:50.082Z,13.71
2017-03-30T03:06:51.322Z,13.69
2017-03-30T03:07:52.562Z,13.69
2017-03-30T03:08:53.807Z,13.61
2017-03-30T03:09:55.070Z,13.74
2017-03-30T03:10:56.337Z,13.69
2017-03-30T03:11:57.577Z,13.65
2017-03-30T03:12:58.815Z,13.62
2017-03-30T03:14:00.074Z,13.62
2017-03-30T03:15:01.372Z,13.62
2017-03-30T03:16:02.581Z,13.59
2017-03-30T03:17:03.849Z,13.63
2017-03-30T03:18:05.136Z,13.62
2017-03-30T03:19:06.366Z,13.52
2017-03-30T03:20:07.627Z,13.63
2017-03-30T03:21:08.849Z,13.63
2017-03-30T03:22:10.102Z,13.61
2017-03-30T03:23:11.352Z,13.59
2017-03-30T03:24:12.608Z,13.55
2017-03-30T03:25:13.868Z,13.58
2017-03-30T03:26:15.111Z,13.55
2017-03-30T03:27:16.356Z,13.51
2017-03-30T03:28:17.591Z,13.52
2017-03-30T03:29:18.841Z,13.49
2017-03-30T03:30:20.093Z,13.46
2017-03-30T03:31:21.552Z,13.52
2017-03-30T03:32:22.806Z,13.47
2017-03-30T03:33:24.042Z,13.51
2017-03-30T03:34:25.431Z,13.49
2017-03-30T03:35:26.679Z,13.54
2017-03-30T03:36:27.981Z,13.54
2017-03-30T03:37:29.216Z,13.51
2017-03-30T03:38:30.485Z,13.44
2017-03-30T03:39:31.778Z,13.55
2017-03-30T03:40:33.054Z,13.47
2017-03-30T03:41:34.274Z,13.51
2017-03-30T03:42:35.552Z,13.49
2017-03-30T03:43:36.750Z,13.38
2017-03-30T03:44:38.007Z,13.52
2017-03-30T03:45:39.250Z,13.54
2017-03-30T03:46:40.557Z,13.46
2017-03-30T03:47:41.780Z,13.49
2017-03-30T03:48:43.032Z,13.41
2017-03-30T03:49:44.248Z,13.43
2017-03-30T03:50:45.485Z,13.51
2017-03-30T03:51:46.730Z,13.4
2017-03-30T03:52:47.979Z,13.49
2017-03-30T03:53:49.222Z,13.49
2017-03-30T03:54:50.513Z,13.49
2017-03-30T03:55:51.753Z,13.56
2017-03-30T03:56:53.002Z,13.46
2017-03-30T03:57:54.235Z,13.49
2017-03-30T03:58:55.500Z,13.49
2017-03-30T03:59:56.805Z,13.38
2017-03-30T04:00:58.029Z,13.55
2017-03-30T04:01:59.293Z,13.43
2017-03-30T04:03:00.526Z,13.49
2017-03-30T04:04:01.815Z,13.49
2017-03-30T04:05:03.042Z,13.37
2017-03-30T04:06:04.363Z,13.52
2017-03-30T04:07:05.616Z,13.47
2017-03-30T04:08:06.859Z,13.52
2017-03-30T04:09:08.100Z,13.54
2017-03-30T04:10:09.361Z,13.56
2017-03-30T04:11:10.578Z,13.43
2017-03-30T04:12:11.851Z,13.54
2017-03-30T04:13:13.099Z,13.54
2017-03-30T04:14:14.353Z,13.52
2017-03-30T04:15:15.598Z,13.51
2017-03-30T04:16:16.848Z,13.52
2017-03-30T04:17:18.076Z,13.49
2017-03-30T04:18:19.332Z,13.43
2017-03-30T04:19:20.574Z,13.56
2017-03-30T04:20:22.024Z,13.51
2017-03-30T04:21:23.265Z,13.41
2017-03-30T04:22:24.503Z,13.43
2017-03-30T04:23:25.798Z,13.51
2017-03-30T04:24:26.996Z,13.54
2017-03-30T04:25:28.235Z,13.55
2017-03-30T04:26:29.595Z,13.52
2017-03-30T04:27:30.948Z,13.52
2017-03-30T04:28:32.185Z,13.55
2017-03-30T04:29:33.432Z,13.52
2017-03-30T04:30:34.671Z,13.54
2017-03-30T04:31:35.950Z,13.51
2017-03-30T04:32:37.172Z,13.52
2017-03-30T04:33:38.483Z,13.49
2017-03-30T04:34:39.723Z,13.47
2017-03-30T04:35:40.957Z,13.47
2017-03-30T04:36:42.289Z,13.54
2017-03-30T04:37:43.552Z,13.51
2017-03-30T04:38:44.826Z,13.47
2017-03-30T04:39:46.081Z,13.51
2017-03-30T04:40:47.341Z,13.51
2017-03-30T04:41:48.563Z,13.44
2017-03-30T04:42:49.890Z,13.43
2017-03-30T04:43:51.126Z,13.4
2017-03-30T04:44:52.376Z,13.37
2017-03-30T04:45:53.724Z,13.44
2017-03-30T04:46:54.964Z,13.4
2017-03-30T04:47:56.207Z,13.44
2017-03-30T04:48:57.494Z,13.41
2017-03-30T04:49:58.736Z,13.43
2017-03-30T04:51:00.087Z,13.47
2017-03-30T04:52:01.329Z,13.52
2017-03-30T04:53:02.596Z,13.41
2017-03-30T04:54:03.853Z,13.4
2017-03-30T04:55:05.113Z,13.52
2017-03-30T04:56:06.333Z,13.38
2017-03-30T04:57:07.593Z,13.44
2017-03-30T04:58:08.846Z,13.44
2017-03-30T04:59:10.099Z,13.43
2017-03-30T05:00:11.348Z,13.37
2017-03-30T05:01:12.598Z,13.43
2017-03-30T05:02:13.850Z,13.43
2017-03-30T05:03:15.085Z,13.43
2017-03-30T05:04:16.442Z,13.43
2017-03-30T05:05:17.684Z,13.4
2017-03-30T05:06:18.924Z,13.41
2017-03-30T05:07:20.195Z,13.4
2017-03-30T05:08:21.449Z,13.4
2017-03-30T05:09:22.696Z,13.43
2017-03-30T05:10:23.930Z,13.43
2017-03-30T05:11:25.184Z,13.46
2017-03-30T05:12:26.438Z,13.33
2017-03-30T05:13:27.662Z,13.32
2017-03-30T05:14:28.907Z,13.4
2017-03-30T05:15:30.165Z,13.4
2017-03-30T05:16:31.534Z,13.4
2017-03-30T05:17:32.764Z,13.43
2017-03-30T05:18:34.016Z,13.43
2017-03-30T05:19:35.252Z,13.4
2017-03-30T05:20:36.499Z,13.37
2017-03-30T05:21:37.757Z,13.4
2017-03-30T05:22:38.978Z,13.37
2017-03-30T05:23:40.226Z,13.33
2017-03-30T05:24:41.494Z,13.38
2017-03-30T05:25:42.741Z,13.43
2017-03-30T05:26:43.996Z,13.43
2017-03-30T05:27:45.233Z,13.43
2017-03-30T05:28:46.541Z,13.44
2017-03-30T05:29:47.841Z,13.38
2017-03-30T05:30:49.095Z,13.43
2017-03-30T05:31:50.353Z,13.4
2017-03-30T05:32:51.592Z,13.44
2017-03-30T05:33:52.847Z,13.38
2017-03-30T05:34:54.110Z,13.37
2017-03-30T05:35:55.478Z,13.46
2017-03-30T05:36:56.618Z,13.52
2017-03-30T05:37:57.853Z,13.4
2017-03-30T05:38:59.115Z,13.47
2017-03-30T05:40:00.359Z,13.44
2017-03-30T05:41:01.598Z,13.4
2017-03-30T05:42:02.859Z,13.47
2017-03-30T05:43:04.169Z,13.51
2017-03-30T05:44:05.412Z,13.47
2017-03-30T05:45:06.650Z,13.52
2017-03-30T05:46:07.908Z,13.49
2017-03-30T05:47:09.208Z,13.49
2017-03-30T05:48:10.448Z,13.47
2017-03-30T05:49:11.701Z,13.51
2017-03-30T05:50:12.947Z,13.54
2017-03-30T05:51:14.194Z,13.51
2017-03-30T05:52:15.452Z,13.54
2017-03-30T05:53:16.671Z,13.47
2017-03-30T05:54:17.949Z,13.51
2017-03-30T05:55:19.175Z,13.61
2017-03-30T05:56:20.436Z,13.63
2017-03-30T05:57:21.675Z,13.55
2017-03-30T05:58:22.928Z,13.58
2017-03-30T05:59:24.287Z,13.59
2017-03-30T06:00:25.568Z,13.58
2017-03-30T06:01:26.807Z,13.65
2017-03-30T06:02:28.078Z,13.62
2017-03-30T06:03:29.317Z,13.61
2017-03-30T06:04:30.574Z,13.65
2017-03-30T06:05:31.831Z,13.69
2017-03-30T06:06:33.166Z,13.73
2017-03-30T06:07:34.411Z,13.7
2017-03-30T06:08:35.658Z,13.7
2017-03-30T06:09:36.911Z,13.73
2017-03-30T06:10:38.150Z,13.74
2017-03-30T06:11:39.421Z,13.81
2017-03-30T06:12:40.660Z,13.87
2017-03-30T06:13:41.892Z,13.81
2017-03-30T06:14:43.164Z,13.8
2017-03-30T06:15:44.412Z,13.96
2017-03-30T06:16:45.657Z,13.96
2017-03-30T06:17:46.914Z,13.94
2017-03-30T06:18:48.171Z,13.99
2017-03-30T06:19:49.668Z,14.02
2017-03-30T06:20:50.882Z,14.09
2017-03-30T06:21:52.130Z,14.12
2017-03-30T06:22:53.370Z,14.02
2017-03-30T06:23:54.656Z,14.1
2017-03-30T06:24:55.969Z,14.13
2017-03-30T06:25:57.257Z,14.14
2017-03-30T06:26:58.527Z,14.19
2017-03-30T06:27:59.762Z,14.1
2017-03-30T06:29:01.033Z,14.12
2017-03-30T06:30:02.281Z,14.21
2017-03-30T06:31:03.569Z,14.21
2017-03-30T06:32:04.860Z,14.32
2017-03-30T06:33:06.091Z,14.29
2017-03-30T06:34:07.338Z,14.39
2017-03-30T06:35:08.579Z,14.47
2017-03-30T06:36:09.825Z,14.49
2017-03-30T06:37:11.059Z,14.57
2017-03-30T06:38:12.336Z,14.64
2017-03-30T06:39:13.601Z,14.71
2017-03-30T06:40:14.844Z,14.75
2017-03-30T06:41:16.150Z,14.8
2017-03-30T06:42:17.360Z,14.88
2017-03-30T06:43:18.623Z,14.93
2017-03-30T06:44:19.907Z,14.94
2017-03-30T06:45:21.151Z,15.03
2017-03-30T06:46:22.398Z,15.11
2017-03-30T06:47:23.639Z,15.08
2017-03-30T06:48:24.884Z,15.19
2017-03-30T06:49:26.178Z,15.24
2017-03-30T06:50:27.496Z,15.36
2017-03-30T06:51:28.764Z,15.43
2017-03-30T06:52:29.990Z,15.45
2017-03-30T06:53:31.297Z,15.49
2017-03-30T06:54:32.575Z,15.63
2017-03-30T06:55:33.822Z,15.75
2017-03-30T06:56:35.102Z,15.84
2017-03-30T06:57:36.308Z,15.88
2017-03-30T06:58:37.561Z,15.92
2017-03-30T06:59:38.802Z,15.93
2017-03-30T07:00:40.051Z,15.96
2017-03-30T07:01:41.296Z,16.16
2017-03-30T07:02:42.564Z,16.22
2017-03-30T07:03:43.820Z,16.38
2017-03-30T07:04:45.063Z,16.41
2017-03-30T07:05:46.290Z,16.5
2017-03-30T07:06:47.541Z,16.56
2017-03-30T07:07:48.778Z,16.48
2017-03-30T07:08:50.023Z,16.65
2017-03-30T07:09:51.361Z,16.68
2017-03-30T07:10:52.622Z,16.8
2017-03-30T07:11:53.871Z,16.96
2017-03-30T07:12:55.147Z,17.11
2017-03-30T07:13:56.357Z,17.18
2017-03-30T07:14:57.733Z,17.28
2017-03-30T07:15:59.041Z,17.41
2017-03-30T07:17:00.281Z,17.63
2017-03-30T07:18:01.522Z,17.73
2017-03-30T07:19:02.775Z,17.76
2017-03-30T07:20:04.033Z,17.82
2017-03-30T07:21:05.271Z,17.95
2017-03-30T07:22:06.554Z,17.99
2017-03-30T07:23:07.835Z,17.94
2017-03-30T07:24:09.099Z,17.97
2017-03-30T07:25:10.328Z,17.97
2017-03-30T07:26:11.565Z,17.92
2017-03-30T07:27:12.813Z,17.91
2017-03-30T07:28:14.093Z,17.87
2017-03-30T07:29:15.374Z,18.02
2017-03-30T07:30:16.618Z,17.97
2017-03-30T07:31:17.883Z,17.92
2017-03-30T07:32:19.105Z,17.91
2017-03-30T07:33:20.414Z,17.97
2017-03-30T07:34:21.673Z,17.94
2017-03-30T07:35:23.005Z,18.09
2017-03-30T07:36:24.280Z,18.28
2017-03-30T07:37:25.527Z,18.82
2017-03-30T07:38:26.769Z,19.29
2017-03-30T07:39:28.127Z,19.57
2017-03-30T07:40:29.412Z,19.8
2017-03-30T07:41:30.684Z,19.75
2017-03-30T07:42:32.027Z,19.69
2017-03-30T07:43:33.235Z,19.63
2017-03-30T07:44:34.487Z,19.48
2017-03-30T07:45:35.738Z,19.15
2017-03-30T07:46:37.008Z,19.13
2017-03-30T07:47:38.271Z,18.87
2017-03-30T07:48:39.516Z,18.83
2017-03-30T07:49:40.766Z,18.76
2017-03-30T07:50:42.016Z,18.72
2017-03-30T07:51:43.258Z,18.65
2017-03-30T07:52:44.532Z,18.29
2017-03-30T07:53:45.824Z,18.29
2017-03-30T07:54:47.070Z,18.4
2017-03-30T07:55:48.320Z,18.4
2017-03-30T07:56:49.575Z,18.58
2017-03-30T07:57:50.835Z,18.62
2017-03-30T07:58:52.076Z,18.65
2017-03-30T07:59:53.330Z,18.68
2017-03-30T08:00:54.633Z,18.7
2017-03-30T08:01:55.938Z,18.68
2017-03-30T08:02:57.181Z,18.82
2017-03-30T08:03:58.502Z,18.9
2017-03-30T08:04:59.799Z,18.99
2017-03-30T08:06:01.025Z,18.9
2017-03-30T08:07:02.304Z,19.02
2017-03-30T08:08:03.629Z,18.91
2017-03-30T08:09:04.830Z,18.84
2017-03-30T08:10:06.142Z,18.94
2017-03-30T08:11:07.378Z,19.1
2017-03-30T08:12:08.649Z,19.57
2017-03-30T08:13:09.957Z,20.18
2017-03-30T08:14:11.215Z,20.84
2017-03-30T08:15:12.487Z,21.32
2017-03-30T08:16:13.821Z,21.75
2017-03-30T08:17:15.021Z,22.46
2017-03-30T08:18:16.313Z,23.02
2017-03-30T08:19:17.600Z,23.72
2017-03-30T08:20:18.839Z,24.02
2017-03-30T08:21:20.082Z,24.52
2017-03-30T08:22:21.328Z,24.91
2017-03-30T08:23:22.614Z,24.67
2017-03-30T08:24:23.861Z,24.49
2017-03-30T08:25:25.120Z,24.37
2017-03-30T08:26:26.419Z,24.13
2017-03-30T08:27:27.664Z,23.85
2017-03-30T08:28:28.913Z,23.83
2017-03-30T08:29:30.162Z,24.47
2017-03-30T08:30:31.510Z,24.95
2017-03-30T08:31:32.817Z,25.31
2017-03-30T08:32:34.193Z,25.5
2017-03-30T08:33:35.438Z,25.8
2017-03-30T08:34:36.734Z,25.93
2017-03-30T08:35:38.037Z,26.42
2017-03-30T08:36:39.343Z,27.02
2017-03-30T08:37:40.565Z,27.38
2017-03-30T08:38:41.824Z,27.67
2017-03-30T08:39:43.073Z,27.86
2017-03-30T08:40:44.343Z,28.07
2017-03-30T08:41:45.661Z,28.1
2017-03-30T08:42:46.960Z,28.43
2017-03-30T08:43:48.195Z,28.59
2017-03-30T08:44:49.480Z,28.5
2017-03-30T08:45:50.735Z,28.81
2017-03-30T08:46:51.986Z,28.85
2017-03-30T08:47:53.298Z,28.77
2017-03-30T08:48:54.541Z,29.1
2017-03-30T08:49:55.788Z,29.57
2017-03-30T08:50:57.048Z,29.72
2017-03-30T08:51:58.295Z,29.31
2017-03-30T08:52:59.548Z,28.96
2017-03-30T08:54:00.812Z,28.73
2017-03-30T08:55:02.061Z,28.32
2017-03-30T08:56:03.434Z,27.8
2017-03-30T08:57:04.675Z,27.51
2017-03-30T08:58:05.931Z,27.28
2017-03-30T08:59:07.180Z,26.95
2017-03-30T09:00:08.437Z,26.94
2017-03-30T09:01:09.698Z,27.02
2017-03-30T09:02:10.948Z,27.06
2017-03-30T09:03:12.185Z,27.1
2017-03-30T09:04:13.456Z,26.92
2017-03-30T09:05:14.736Z,26.39
2017-03-30T09:06:15.981Z,26.21
2017-03-30T09:07:17.230Z,26.22
2017-03-30T09:08:18.488Z,26.05
2017-03-30T09:09:19.739Z,26.17
2017-03-30T09:10:20.987Z,26.55
2017-03-30T09:11:22.242Z,27.02
2017-03-30T09:12:23.493Z,27.76
2017-03-30T09:13:24.742Z,28.06
2017-03-30T09:14:26.061Z,28.19
2017-03-30T09:15:27.318Z,28.14
2017-03-30T09:16:28.551Z,28.26
2017-03-30T09:17:29.833Z,28.14
2017-03-30T09:18:31.052Z,27.71
2017-03-30T09:19:32.301Z,27.47
2017-03-30T09:20:33.672Z,27.47
2017-03-30T09:21:34.917Z,27.88
2017-03-30T09:22:36.167Z,28.5
2017-03-30T09:23:37.414Z,28.7
2017-03-30T09:24:38.761Z,28.96
2017-03-30T09:25:40.107Z,29.4
2017-03-30T09:26:41.368Z,29.77
2017-03-30T09:27:42.669Z,30.19
2017-03-30T09:28:43.911Z,30.02
2017-03-30T09:29:45.171Z,30.02
2017-03-30T09:30:46.432Z,30.05
2017-03-30T09:31:47.819Z,30.11
2017-03-30T09:32:49.091Z,29.7
2017-03-30T09:33:50.388Z,29.23
2017-03-30T09:34:51.610Z,28.87
2017-03-30T09:35:52.858Z,29.22
2017-03-30T09:36:54.133Z,29.71
2017-03-30T09:37:55.491Z,30.24
2017-03-30T09:38:56.731Z,30.37
2017-03-30T09:39:58.109Z,30.43
2017-03-30T09:40:59.402Z,30.57
2017-03-30T09:42:00.669Z,30.76
2017-03-30T09:43:02.027Z,31.06
2017-03-30T09:44:03.215Z,31.02
2017-03-30T09:45:04.570Z,31.05
2017-03-30T09:46:05.817Z,30.67
2017-03-30T09:47:07.070Z,30.15
2017-03-30T09:48:08.337Z,29.71
2017-03-30T09:49:09.666Z,29.19
2017-03-30T09:50:10.913Z,28.72
2017-03-30T09:51:12.204Z,28.32
2017-03-30T09:52:13.461Z,27.66
2017-03-30T09:53:14.709Z,27.1
2017-03-30T09:54:15.963Z,26.99
2017-03-30T09:55:17.218Z,27.02
2017-03-30T09:56:18.507Z,27.14
2017-03-30T09:57:19.730Z,27.43
2017-03-30T09:58:20.987Z,27.69
2017-03-30T09:59:22.257Z,27.95
2017-03-30T10:00:23.518Z,28.33
2017-03-30T10:01:24.770Z,28.43
2017-03-30T10:02:26.022Z,28.56
2017-03-30T10:03:27.274Z,28.21
2017-03-30T10:04:28.532Z,28.23
2017-03-30T10:05:29.810Z,28.25
2017-03-30T10:06:31.052Z,28.44
2017-03-30T10:07:32.298Z,28.68
2017-03-30T10:08:33.618Z,28.65
2017-03-30T10:09:34.879Z,28.78
2017-03-30T10:10:36.137Z,28.8
2017-03-30T10:11:37.410Z,29.08
2017-03-30T10:12:38.664Z,29.4
2017-03-30T10:13:39.915Z,29.75
2017-03-30T10:14:41.342Z,30.11
2017-03-30T10:15:42.603Z,30.37
2017-03-30T10:16:43.880Z,30.86
2017-03-30T10:17:45.132Z,31.23
2017-03-30T10:18:46.426Z,31.55
2017-03-30T10:19:47.749Z,31.57
2017-03-30T10:20:48.996Z,31.87
2017-03-30T10:21:50.253Z,32.18
2017-03-30T10:22:51.509Z,32.22
2017-03-30T10:23:52.767Z,32.55
2017-03-30T10:24:54.028Z,31.85
2017-03-30T10:25:55.297Z,31.24
2017-03-30T10:26:56.635Z,30.78
2017-03-30T10:27:57.905Z,30.75
2017-03-30T10:28:59.150Z,31.17
2017-03-30T10:30:00.401Z,31.82
2017-03-30T10:31:01.695Z,31.67
2017-03-30T10:32:02.938Z,31.68
2017-03-30T10:33:04.220Z,31.98
2017-03-30T10:34:05.512Z,32.24
2017-03-30T10:35:06.756Z,32.49
2017-03-30T10:36:08.020Z,32.58
2017-03-30T10:37:09.271Z,32.17
2017-03-30T10:38:10.552Z,31.67
2017-03-30T10:39:11.856Z,31.33
2017-03-30T10:40:13.131Z,31.49
2017-03-30T10:41:14.439Z,31.6
2017-03-30T10:42:15.705Z,31.42
2017-03-30T10:43:16.937Z,31.02
2017-03-30T10:44:18.186Z,30.72
2017-03-30T10:45:19.461Z,30.34
2017-03-30T10:46:20.725Z,29.97
2017-03-30T10:47:21.993Z,29.74
2017-03-30T10:48:23.223Z,29.22
2017-03-30T10:49:24.632Z,28.65
2017-03-30T10:50:26.061Z,28.25
2017-03-30T10:51:27.331Z,27.76
2017-03-30T10:52:28.616Z,27.59
2017-03-30T10:53:29.872Z,27.39
2017-03-30T10:54:31.106Z,27.2
2017-03-30T10:55:32.365Z,26.79
2017-03-30T10:56:33.732Z,26.58
2017-03-30T10:57:34.975Z,26.35
2017-03-30T10:58:36.235Z,25.89
2017-03-30T10:59:37.486Z,25.67
2017-03-30T11:00:38.734Z,25.49
2017-03-30T11:01:40.046Z,25.17
2017-03-30T11:02:41.300Z,25.17
2017-03-30T11:03:42.528Z,25.01
2017-03-30T11:04:43.801Z,24.79
2017-03-30T11:05:45.057Z,24.37
2017-03-30T11:06:46.366Z,24.24
2017-03-30T11:07:47.625Z,24.04
2017-03-30T11:08:48.896Z,23.98
2017-03-30T11:09:50.157Z,23.83
2017-03-30T11:10:51.494Z,23.75
2017-03-30T11:11:52.764Z,23.71
2017-03-30T11:12:53.992Z,23.65
2017-03-30T11:13:55.258Z,23.58
2017-03-30T11:14:56.518Z,23.52
2017-03-30T11:15:57.766Z,23.52
2017-03-30T11:16:59.041Z,23.53
2017-03-30T11:18:00.291Z,23.47
2017-03-30T11:19:01.545Z,23.4
2017-03-30T11:20:02.845Z,23.39
2017-03-30T11:21:04.120Z,23.42
2017-03-30T11:22:05.349Z,23.35
2017-03-30T11:23:06.706Z,23.43
2017-03-30T11:24:07.952Z,23.47
2017-03-30T11:25:09.203Z,23.43
2017-03-30T11:26:10.490Z,23.4
2017-03-30T11:27:11.865Z,23.46
2017-03-30T11:28:13.148Z,23.47
2017-03-30T11:29:14.399Z,23.57
2017-03-30T11:30:15.664Z,23.5
2017-03-30T11:31:16.935Z,23.49
2017-03-30T11:32:18.292Z,23.45
2017-03-30T11:33:19.526Z,23.43
2017-03-30T11:34:20.776Z,23.38
2017-03-30T11:35:22.021Z,23.35
2017-03-30T11:36:23.262Z,23.39
2017-03-30T11:37:24.556Z,23.42
2017-03-30T11:38:25.820Z,23.45
2017-03-30T11:39:27.091Z,23.47
2017-03-30T11:40:28.356Z,23.47
2017-03-30T11:41:29.605Z,23.46
2017-03-30T11:42:30.860Z,23.42
2017-03-30T11:43:32.117Z,23.5
2017-03-30T11:44:33.362Z,23.43
2017-03-30T11:45:34.637Z,23.4
2017-03-30T11:46:36.010Z,23.29
2017-03-30T11:47:37.261Z,23.31
2017-03-30T11:48:38.517Z,23.22
2017-03-30T11:49:39.787Z,23.04
2017-03-30T11:50:41.148Z,22.99
2017-03-30T11:51:42.447Z,23.05
2017-03-30T11:52:43.695Z,23.15
2017-03-30T11:53:44.945Z,23.12
2017-03-30T11:54:46.198Z,23.34
2017-03-30T11:55:47.443Z,23.4
2017-03-30T11:56:48.705Z,23.4
2017-03-30T11:57:49.996Z,23.61
2017-03-30T11:58:51.233Z,23.68
2017-03-30T11:59:52.503Z,23.68
2017-03-30T12:00:53.714Z,23.83
2017-03-30T12:01:54.971Z,23.85
2017-03-30T12:02:56.298Z,23.89
2017-03-30T12:03:57.538Z,23.97
2017-03-30T12:04:58.783Z,23.87
2017-03-30T12:06:00.036Z,23.9
2017-03-30T12:07:01.278Z,24.01
2017-03-30T12:08:02.532Z,24.08
2017-03-30T12:09:03.776Z,23.98
2017-03-30T12:10:05.031Z,23.89
2017-03-30T12:11:06.281Z,23.85
2017-03-30T12:12:07.542Z,23.76
2017-03-30T12:13:08.803Z,23.65
2017-03-30T12:14:10.046Z,23.67
2017-03-30T12:15:11.310Z,23.52
2017-03-30T12:16:12.568Z,23.5
2017-03-30T12:17:13.856Z,23.4
2017-03-30T12:18:15.096Z,23.46
2017-03-30T12:19:16.559Z,23.35
2017-03-30T12:20:17.806Z,23.4
2017-03-30T12:21:19.071Z,23.35
2017-03-30T12:22:20.321Z,23.39
2017-03-30T12:23:21.696Z,23.4
2017-03-30T12:24:22.836Z,23.42
2017-03-30T12:25:24.087Z,23.35
2017-03-30T12:26:25.357Z,23.32
2017-03-30T12:27:26.588Z,23.22
2017-03-30T12:28:27.844Z,23.14
2017-03-30T12:29:29.092Z,23.09
2017-03-30T12:30:30.349Z,23.07
2017-03-30T12:31:31.602Z,22.94
2017-03-30T12:32:32.859Z,23.02
2017-03-30T12:33:34.118Z,22.97
2017-03-30T12:34:35.376Z,23.05
2017-03-30T12:35:36.664Z,22.96
2017-03-30T12:36:37.919Z,22.92
2017-03-30T12:37:39.167Z,22.84
2017-03-30T12:38:40.443Z,22.92
2017-03-30T12:39:41.724Z,23.05
2017-03-30T12:40:42.995Z,22.94
2017-03-30T12:41:44.253Z,22.92
2017-03-30T12:42:45.630Z,22.84
2017-03-30T12:43:46.851Z,22.84
2017-03-30T12:44:48.118Z,22.74
2017-03-30T12:45:49.382Z,22.74
2017-03-30T12:46:50.623Z,22.72
2017-03-30T12:47:51.952Z,22.77
2017-03-30T12:48:53.189Z,22.84
2017-03-30T12:49:54.453Z,22.89
2017-03-30T12:50:55.687Z,23.02
2017-03-30T12:51:56.936Z,23.02
2017-03-30T12:52:58.264Z,23.04
2017-03-30T12:53:59.522Z,23.01
2017-03-30T12:55:00.869Z,23.04
2017-03-30T12:56:02.115Z,23.02
2017-03-30T12:57:03.380Z,23.02
2017-03-30T12:58:04.692Z,23.09
2017-03-30T12:59:06.106Z,23.07
2017-03-30T13:00:07.236Z,23.01
2017-03-30T13:01:08.651Z,22.99
2017-03-30T13:02:09.902Z,22.99
2017-03-30T13:03:11.154Z,23.14
2017-03-30T13:04:12.428Z,23.14
2017-03-30T13:05:13.667Z,23.19
2017-03-30T13:06:14.939Z,23.19
2017-03-30T13:07:16.266Z,23.29
2017-03-30T13:08:17.499Z,23.39
2017-03-30T13:09:18.748Z,23.52
2017-03-30T13:10:20.009Z,23.53
2017-03-30T13:11:21.255Z,23.62